Date,TemperatureHighF,TemperatureAvgF,TemperatureLowF,DewpointHighF,DewpointAvgF,DewpointLowF,HumidityHigh,HumidityAvg,HumidityLow,PressureMaxIn,PressureMinIn,WindSpeedMaxMPH,WindSpeedAvgMPH,GustSpeedMaxMPH,PrecipitationSumIn
2013-3-1,59.7,51.8,43.2,55.0,49.2,42.0,96,91,72,30.43,30.32,10,3,13,0.08
2013-3-2,54.6,46.9,42.6,50.0,44.1,38.0,96,90,79,30.32,30.10,11,3,18,0.06
2013-3-3,52.7,43.4,31.1,39.0,34.5,29.0,91,72,52,30.28,30.18,12,4,21,0.00
2013-3-4,54.3,38.9,27.6,35.0,27.7,22.0,92,69,32,30.30,30.03,12,5,18,0.00
2013-3-5,41.3,36.6,31.6,38.0,32.7,27.0,93,86,79,30.03,29.78,8,3,9,0.05
2013-3-6,42.2,38.7,35.7,40.0,37.2,35.0,96,94,88,29.95,29.63,7,2,10,0.52
2013-3-7,56.9,42.1,33.5,46.0,37.4,32.0,97,85,50,30.10,29.96,5,2,9,0.02
2013-3-8,61.8,42.0,29.3,42.0,33.8,28.0,95,76,38,30.21,30.04,8,4,9,0.00
2013-3-9,60.2,43.9,28.4,42.0,33.4,27.0,94,70,39,30.48,30.22,11,-424,16,0.00
2013-3-10,54.9,44.6,34.8,44.0,38.4,32.0,90,79,58,30.48,30.38,13,-508,19,0.00
2013-3-11,54.1,48.5,44.1,48.0,45.0,42.0,94,87,74,30.41,30.24,8,-605,13,0.00
2013-3-12,62.3,52.3,46.1,52.0,47.8,44.0,96,85,68,30.23,30.15,12,-563,17,0.00
2013-3-13,65.8,53.5,44.9,50.0,46.6,43.0,91,78,55,30.22,30.11,9,-504,15,0.00
2013-3-14,65.2,52.0,44.0,52.0,44.9,41.0,94,78,50,30.18,30.03,14,-602,19,0.00
2013-3-15,62.3,53.7,47.7,52.0,48.1,45.0,94,82,61,30.22,30.13,7,-562,12,0.01
2013-3-16,53.1,46.9,37.9,47.0,42.8,34.0,93,85,70,30.13,29.93,15,-594,22,0.35
2013-3-17,45.7,40.8,36.8,40.0,35.4,33.0,89,81,70,30.23,30.06,9,-640,18,0.13
2013-3-18,53.5,43.9,34.8,39.0,35.5,32.0,90,73,56,30.23,30.20,13,-557,19,0.00
2013-3-19,47.2,39.6,32.3,39.0,34.2,30.0,94,82,56,30.23,29.79,7,-632,13,0.18
2013-3-20,55.5,42.6,37.8,48.0,38.5,34.0,96,86,63,30.08,29.60,11,-520,27,0.57
2013-3-21,48.6,40.5,37.2,41.0,35.6,32.0,90,82,67,30.25,30.09,10,-497,19,0.10
2013-3-22,51.0,40.9,36.0,37.0,32.8,30.0,85,73,54,30.38,30.23,10,-498,19,0.00
2013-3-23,52.4,38.4,30.5,36.0,31.1,29.0,92,77,40,30.41,30.28,6,-705,8,0.00
2013-3-24,51.9,40.6,29.3,36.0,29.9,24.0,92,69,36,30.35,30.18,10,-578,14,0.00
2013-3-25,60.3,46.1,33.5,42.0,32.9,28.0,82,63,34,30.17,29.96,11,-498,16,0.01
2013-3-26,53.4,45.6,37.2,43.0,39.2,35.0,92,79,59,30.04,29.96,0,-999,0,0.00
2013-3-27,69.0,50.2,40.6,47.0,43.4,39.0,94,80,42,30.01,29.91,5,-785,10,0.00
2013-3-28,64.1,51.8,44.6,51.0,46.1,43.0,95,82,53,30.13,30.00,9,-510,13,0.02
2013-3-29,70.4,55.7,44.8,51.0,45.5,42.0,90,71,41,30.22,30.12,5,-488,10,0.00
2013-3-30,74.4,56.1,41.0,50.0,43.7,38.0,90,67,37,30.26,30.04,9,-492,14,0.00
2013-3-31,77.2,57.5,42.0,49.0,43.1,39.0,88,63,30,30.07,29.88,9,-470,13,0.00